sensor_id;sensor_type;location;lat;lon;timestamp;P1;durP1;ratioP1;P2;durP2;ratioP2
20743;SDS011;56303;52.160;-0.428;2023-06-26T00:01:35;2.63;;;1.70;;
20743;SDS011;56303;52.160;-0.428;2023-06-26T00:04:02;3.30;;;1.60;;
20743;SDS011;56303;52.160;-0.428;2023-06-26T00:06:29;3.20;;;1.57;;
20743;SDS011;56303;52.160;-0.428;2023-06-26T00:08:56;5.30;;;2.00;;
20743;SDS011;56303;52.160;-0.428;2023-06-26T00:11:25;5.23;;;1.77;;
20743;SDS011;56303;52.160;-0.428;2023-06-26T00:13:53;3.53;;;1.77;;
20743;SDS011;56303;52.160;-0.428;2023-06-26T00:16:20;3.53;;;1.60;;
20743;SDS011;56303;52.160;-0.428;2023-06-26T00:18:47;3.43;;;1.50;;
20743;SDS011;56303;52.160;-0.428;2023-06-26T00:21:14;4.50;;;1.80;;
20743;SDS011;56303;52.160;-0.428;2023-06-26T00:23:41;3.17;;;1.57;;
20743;SDS011;56303;52.160;-0.428;2023-06-26T00:26:07;3.07;;;1.50;;
20743;SDS011;56303;52.160;-0.428;2023-06-26T00:28:36;7.50;;;1.80;;
20743;SDS011;56303;52.160;-0.428;2023-06-26T00:31:03;5.50;;;1.83;;
20743;SDS011;56303;52.160;-0.428;2023-06-26T00:33:30;3.63;;;1.93;;
20743;SDS011;56303;52.160;-0.428;2023-06-26T00:35:57;3.17;;;1.80;;
20743;SDS011;56303;52.160;-0.428;2023-06-26T00:38:24;6.60;;;2.00;;
20743;SDS011;56303;52.160;-0.428;2023-06-26T00:40:51;1.47;;;1.30;;
20743;SDS011;56303;52.160;-0.428;2023-06-26T00:43:21;4.43;;;2.00;;
20743;SDS011;56303;52.160;-0.428;2023-06-26T00:45:48;3.73;;;1.63;;
20743;SDS011;56303;52.160;-0.428;2023-06-26T00:48:16;4.03;;;1.93;;
20743;SDS011;56303;52.160;-0.428;2023-06-26T00:50:43;2.40;;;1.57;;
20743;SDS011;56303;52.160;-0.428;2023-06-26T00:53:10;3.83;;;1.60;;
20743;SDS011;56303;52.160;-0.428;2023-06-26T00:55:38;2.07;;;1.67;;
20743;SDS011;56303;52.160;-0.428;2023-06-26T00:58:05;2.77;;;1.67;;
20743;SDS011;56303;52.160;-0.428;2023-06-26T01:00:32;5.77;;;1.93;;
20743;SDS011;56303;52.160;-0.428;2023-06-26T01:02:59;4.23;;;1.53;;
20743;SDS011;56303;52.160;-0.428;2023-06-26T01:05:27;5.47;;;2.00;;
20743;SDS011;56303;52.160;-0.428;2023-06-26T01:07:56;4.27;;;1.77;;
20743;SDS011;56303;52.160;-0.428;2023-06-26T01:10:24;5.63;;;1.90;;
20743;SDS011;56303;52.160;-0.428;2023-06-26T01:12:54;2.67;;;1.87;;
20743;SDS011;56303;52.160;-0.428;2023-06-26T01:15:21;3.17;;;1.60;;
20743;SDS011;56303;52.160;-0.428;2023-06-26T01:17:48;5.13;;;1.80;;
20743;SDS011;56303;52.160;-0.428;2023-06-26T01:20:16;5.73;;;2.50;;
20743;SDS011;56303;52.160;-0.428;2023-06-26T01:22:47;3.27;;;2.13;;
20743;SDS011;56303;52.160;-0.428;2023-06-26T01:25:43;2.63;;;2.00;;
20743;SDS011;56303;52.160;-0.428;2023-06-26T01:28:38;5.23;;;2.17;;
20743;SDS011;56303;52.160;-0.428;2023-06-26T01:31:07;5.90;;;2.40;;
20743;SDS011;56303;52.160;-0.428;2023-06-26T01:33:35;3.63;;;2.50;;
20743;SDS011;56303;52.160;-0.428;2023-06-26T01:36:02;4.50;;;2.13;;
20743;SDS011;56303;52.160;-0.428;2023-06-26T01:38:30;3.07;;;2.30;;
20743;SDS011;56303;52.160;-0.428;2023-06-26T01:40:57;5.37;;;2.30;;
20743;SDS011;56303;52.160;-0.428;2023-06-26T01:51:27;6.53;;;2.30;;
20743;SDS011;56303;52.160;-0.428;2023-06-26T01:53:58;2.27;;;2.07;;
20743;SDS011;56303;52.160;-0.428;2023-06-26T01:56:27;4.20;;;2.30;;
20743;SDS011;56303;52.160;-0.428;2023-06-26T01:58:55;3.40;;;2.20;;
20743;SDS011;56303;52.160;-0.428;2023-06-26T02:01:23;7.70;;;2.50;;
20743;SDS011;56303;52.160;-0.428;2023-06-26T02:03:50;4.80;;;2.40;;
20743;SDS011;56303;52.160;-0.428;2023-06-26T02:06:17;5.37;;;2.50;;
20743;SDS011;56303;52.160;-0.428;2023-06-26T02:08:44;7.00;;;2.97;;
20743;SDS011;56303;52.160;-0.428;2023-06-26T02:11:11;3.90;;;2.53;;
20743;SDS011;56303;52.160;-0.428;2023-06-26T02:13:38;5.20;;;2.43;;
20743;SDS011;56303;52.160;-0.428;2023-06-26T02:16:05;5.27;;;2.77;;
20743;SDS011;56303;52.160;-0.428;2023-06-26T02:18:31;7.83;;;2.60;;
20743;SDS011;56303;52.160;-0.428;2023-06-26T02:20:58;5.27;;;2.87;;
20743;SDS011;56303;52.160;-0.428;2023-06-26T02:23:26;6.03;;;3.10;;
20743;SDS011;56303;52.160;-0.428;2023-06-26T02:25:53;5.57;;;2.77;;
20743;SDS011;56303;52.160;-0.428;2023-06-26T02:28:20;6.03;;;2.53;;
20743;SDS011;56303;52.160;-0.428;2023-06-26T02:30:47;8.53;;;2.57;;
20743;SDS011;56303;52.160;-0.428;2023-06-26T02:33:14;3.83;;;2.70;;
20743;SDS011;56303;52.160;-0.428;2023-06-26T02:35:41;6.90;;;2.80;;
20743;SDS011;56303;52.160;-0.428;2023-06-26T02:38:08;6.10;;;2.60;;
20743;SDS011;56303;52.160;-0.428;2023-06-26T02:40:34;4.93;;;2.67;;
20743;SDS011;56303;52.160;-0.428;2023-06-26T02:43:02;6.27;;;2.73;;
20743;SDS011;56303;52.160;-0.428;2023-06-26T02:45:28;14.77;;;4.00;;
20743;SDS011;56303;52.160;-0.428;2023-06-26T02:47:55;5.93;;;2.97;;
20743;SDS011;56303;52.160;-0.428;2023-06-26T02:50:22;5.50;;;2.70;;
20743;SDS011;56303;52.160;-0.428;2023-06-26T02:52:49;11.93;;;3.70;;
20743;SDS011;56303;52.160;-0.428;2023-06-26T02:55:18;4.70;;;2.53;;
20743;SDS011;56303;52.160;-0.428;2023-06-26T02:57:48;6.23;;;2.70;;
20743;SDS011;56303;52.160;-0.428;2023-06-26T03:00:15;5.33;;;2.80;;
20743;SDS011;56303;52.160;-0.428;2023-06-26T03:02:42;6.33;;;2.80;;
20743;SDS011;56303;52.160;-0.428;2023-06-26T03:05:09;6.57;;;2.90;;
20743;SDS011;56303;52.160;-0.428;2023-06-26T03:07:36;7.87;;;3.17;;
20743;SDS011;56303;52.160;-0.428;2023-06-26T03:10:03;8.57;;;3.77;;
20743;SDS011;56303;52.160;-0.428;2023-06-26T03:12:31;5.57;;;3.07;;
20743;SDS011;56303;52.160;-0.428;2023-06-26T03:14:58;7.37;;;4.63;;
20743;SDS011;56303;52.160;-0.428;2023-06-26T03:17:25;8.63;;;3.87;;
20743;SDS011;56303;52.160;-0.428;2023-06-26T03:19:52;6.33;;;3.10;;
20743;SDS011;56303;52.160;-0.428;2023-06-26T03:22:19;7.33;;;3.10;;
20743;SDS011;56303;52.160;-0.428;2023-06-26T03:24:45;7.57;;;3.37;;
20743;SDS011;56303;52.160;-0.428;2023-06-26T03:27:12;7.37;;;3.17;;
20743;SDS011;56303;52.160;-0.428;2023-06-26T03:29:42;5.17;;;3.77;;
20743;SDS011;56303;52.160;-0.428;2023-06-26T03:32:08;6.93;;;4.23;;
20743;SDS011;56303;52.160;-0.428;2023-06-26T03:34:35;9.23;;;3.50;;
20743;SDS011;56303;52.160;-0.428;2023-06-26T03:37:02;8.20;;;2.90;;
20743;SDS011;56303;52.160;-0.428;2023-06-26T03:39:29;7.43;;;3.17;;
20743;SDS011;56303;52.160;-0.428;2023-06-26T03:41:56;6.00;;;3.20;;
20743;SDS011;56303;52.160;-0.428;2023-06-26T03:44:27;5.57;;;3.20;;
20743;SDS011;56303;52.160;-0.428;2023-06-26T03:46:54;8.30;;;3.30;;
20743;SDS011;56303;52.160;-0.428;2023-06-26T03:49:21;6.17;;;3.00;;
20743;SDS011;56303;52.160;-0.428;2023-06-26T03:51:48;6.27;;;2.90;;
20743;SDS011;56303;52.160;-0.428;2023-06-26T03:54:15;7.37;;;3.20;;
20743;SDS011;56303;52.160;-0.428;2023-06-26T03:56:42;10.33;;;3.50;;
20743;SDS011;56303;52.160;-0.428;2023-06-26T03:59:09;7.40;;;3.63;;
20743;SDS011;56303;52.160;-0.428;2023-06-26T04:01:37;11.97;;;4.13;;
20743;SDS011;56303;52.160;-0.428;2023-06-26T04:04:04;7.73;;;3.57;;
20743;SDS011;56303;52.160;-0.428;2023-06-26T04:06:31;7.77;;;3.60;;
20743;SDS011;56303;52.160;-0.428;2023-06-26T04:08:58;8.87;;;3.80;;
20743;SDS011;56303;52.160;-0.428;2023-06-26T04:11:25;5.63;;;3.00;;
20743;SDS011;56303;52.160;-0.428;2023-06-26T04:13:52;7.03;;;3.30;;
20743;SDS011;56303;52.160;-0.428;2023-06-26T04:16:20;6.50;;;3.40;;
20743;SDS011;56303;52.160;-0.428;2023-06-26T04:18:47;7.47;;;3.83;;
20743;SDS011;56303;52.160;-0.428;2023-06-26T04:21:14;9.13;;;4.40;;
20743;SDS011;56303;52.160;-0.428;2023-06-26T04:23:41;6.97;;;3.00;;
20743;SDS011;56303;52.160;-0.428;2023-06-26T04:26:08;7.17;;;2.97;;
20743;SDS011;56303;52.160;-0.428;2023-06-26T04:28:35;7.60;;;3.50;;
20743;SDS011;56303;52.160;-0.428;2023-06-26T04:31:02;9.97;;;3.70;;
20743;SDS011;56303;52.160;-0.428;2023-06-26T04:33:32;7.63;;;3.60;;
20743;SDS011;56303;52.160;-0.428;2023-06-26T04:35:59;8.40;;;3.63;;
20743;SDS011;56303;52.160;-0.428;2023-06-26T04:38:30;7.73;;;3.60;;
20743;SDS011;56303;52.160;-0.428;2023-06-26T04:40:58;5.37;;;3.10;;
20743;SDS011;56303;52.160;-0.428;2023-06-26T04:43:25;7.30;;;3.87;;
20743;SDS011;56303;52.160;-0.428;2023-06-26T04:45:52;5.20;;;3.20;;
20743;SDS011;56303;52.160;-0.428;2023-06-26T04:48:19;8.77;;;4.00;;
20743;SDS011;56303;52.160;-0.428;2023-06-26T04:50:46;7.90;;;3.43;;
20743;SDS011;56303;52.160;-0.428;2023-06-26T04:53:20;6.67;;;3.63;;
20743;SDS011;56303;52.160;-0.428;2023-06-26T04:55:51;7.97;;;3.30;;
20743;SDS011;56303;52.160;-0.428;2023-06-26T04:58:19;6.43;;;3.53;;
20743;SDS011;56303;52.160;-0.428;2023-06-26T05:00:46;7.30;;;3.63;;
20743;SDS011;56303;52.160;-0.428;2023-06-26T05:03:13;9.37;;;3.77;;
20743;SDS011;56303;52.160;-0.428;2023-06-26T05:05:43;7.80;;;3.60;;
20743;SDS011;56303;52.160;-0.428;2023-06-26T05:08:14;6.60;;;3.27;;
20743;SDS011;56303;52.160;-0.428;2023-06-26T05:10:52;8.70;;;3.83;;
20743;SDS011;56303;52.160;-0.428;2023-06-26T05:13:24;12.00;;;4.27;;
20743;SDS011;56303;52.160;-0.428;2023-06-26T05:15:51;5.00;;;3.17;;
20743;SDS011;56303;52.160;-0.428;2023-06-26T05:18:19;10.50;;;4.53;;
20743;SDS011;56303;52.160;-0.428;2023-06-26T05:20:46;6.73;;;3.30;;
20743;SDS011;56303;52.160;-0.428;2023-06-26T05:23:13;7.10;;;3.43;;
20743;SDS011;56303;52.160;-0.428;2023-06-26T05:25:41;6.73;;;3.03;;
20743;SDS011;56303;52.160;-0.428;2023-06-26T05:28:09;8.43;;;4.10;;
20743;SDS011;56303;52.160;-0.428;2023-06-26T05:30:38;8.00;;;3.17;;
20743;SDS011;56303;52.160;-0.428;2023-06-26T05:33:05;6.97;;;3.10;;
20743;SDS011;56303;52.160;-0.428;2023-06-26T05:35:34;8.10;;;3.30;;
20743;SDS011;56303;52.160;-0.428;2023-06-26T05:38:02;10.40;;;3.33;;
20743;SDS011;56303;52.160;-0.428;2023-06-26T05:40:29;9.97;;;3.57;;
20743;SDS011;56303;52.160;-0.428;2023-06-26T05:42:57;8.30;;;3.20;;
20743;SDS011;56303;52.160;-0.428;2023-06-26T05:45:24;10.93;;;3.00;;
20743;SDS011;56303;52.160;-0.428;2023-06-26T05:47:51;5.47;;;2.80;;
20743;SDS011;56303;52.160;-0.428;2023-06-26T05:50:18;10.27;;;4.20;;
20743;SDS011;56303;52.160;-0.428;2023-06-26T05:52:46;8.30;;;3.43;;
20743;SDS011;56303;52.160;-0.428;2023-06-26T05:55:13;8.70;;;3.57;;
20743;SDS011;56303;52.160;-0.428;2023-06-26T05:57:41;5.60;;;3.23;;
20743;SDS011;56303;52.160;-0.428;2023-06-26T06:00:08;7.13;;;3.20;;
20743;SDS011;56303;52.160;-0.428;2023-06-26T06:02:39;5.60;;;3.07;;
20743;SDS011;56303;52.160;-0.428;2023-06-26T06:05:08;5.70;;;2.70;;
20743;SDS011;56303;52.160;-0.428;2023-06-26T06:07:35;6.80;;;3.20;;
20743;SDS011;56303;52.160;-0.428;2023-06-26T06:10:03;6.67;;;3.10;;
20743;SDS011;56303;52.160;-0.428;2023-06-26T06:12:30;5.60;;;3.00;;
20743;SDS011;56303;52.160;-0.428;2023-06-26T06:14:57;7.47;;;2.93;;
20743;SDS011;56303;52.160;-0.428;2023-06-26T06:17:24;9.00;;;3.10;;
20743;SDS011;56303;52.160;-0.428;2023-06-26T06:19:51;8.53;;;3.27;;
20743;SDS011;56303;52.160;-0.428;2023-06-26T06:22:18;7.97;;;3.27;;
20743;SDS011;56303;52.160;-0.428;2023-06-26T06:24:45;6.77;;;3.17;;
20743;SDS011;56303;52.160;-0.428;2023-06-26T06:27:13;6.10;;;3.10;;
20743;SDS011;56303;52.160;-0.428;2023-06-26T06:29:40;6.20;;;3.30;;
20743;SDS011;56303;52.160;-0.428;2023-06-26T06:32:07;6.93;;;3.27;;
20743;SDS011;56303;52.160;-0.428;2023-06-26T06:34:34;15.33;;;3.73;;
20743;SDS011;56303;52.160;-0.428;2023-06-26T06:37:02;6.20;;;3.03;;
20743;SDS011;56303;52.160;-0.428;2023-06-26T06:39:29;4.93;;;2.50;;
20743;SDS011;56303;52.160;-0.428;2023-06-26T06:41:56;8.00;;;3.03;;
20743;SDS011;56303;52.160;-0.428;2023-06-26T06:44:23;5.40;;;3.50;;
20743;SDS011;56303;52.160;-0.428;2023-06-26T06:46:50;8.43;;;3.00;;
20743;SDS011;56303;52.160;-0.428;2023-06-26T06:49:18;7.00;;;2.97;;
20743;SDS011;56303;52.160;-0.428;2023-06-26T06:51:45;7.00;;;2.70;;
20743;SDS011;56303;52.160;-0.428;2023-06-26T06:54:12;6.83;;;3.20;;
20743;SDS011;56303;52.160;-0.428;2023-06-26T06:56:40;7.13;;;2.60;;
20743;SDS011;56303;52.160;-0.428;2023-06-26T06:59:07;6.37;;;2.80;;
20743;SDS011;56303;52.160;-0.428;2023-06-26T07:01:34;4.27;;;2.50;;
20743;SDS011;56303;52.160;-0.428;2023-06-26T07:04:01;4.93;;;2.20;;
20743;SDS011;56303;52.160;-0.428;2023-06-26T07:06:30;5.80;;;2.50;;
20743;SDS011;56303;52.160;-0.428;2023-06-26T07:08:57;7.07;;;3.17;;
20743;SDS011;56303;52.160;-0.428;2023-06-26T07:11:24;8.50;;;3.53;;
20743;SDS011;56303;52.160;-0.428;2023-06-26T07:13:51;6.23;;;2.60;;
20743;SDS011;56303;52.160;-0.428;2023-06-26T07:16:17;8.13;;;2.53;;
20743;SDS011;56303;52.160;-0.428;2023-06-26T07:18:44;5.83;;;2.80;;
20743;SDS011;56303;52.160;-0.428;2023-06-26T07:21:11;5.23;;;2.73;;
20743;SDS011;56303;52.160;-0.428;2023-06-26T07:23:38;4.97;;;2.50;;
20743;SDS011;56303;52.160;-0.428;2023-06-26T07:26:05;7.90;;;2.70;;
20743;SDS011;56303;52.160;-0.428;2023-06-26T07:28:32;7.13;;;2.57;;
20743;SDS011;56303;52.160;-0.428;2023-06-26T07:30:59;4.87;;;2.37;;
20743;SDS011;56303;52.160;-0.428;2023-06-26T07:33:26;5.00;;;2.10;;
20743;SDS011;56303;52.160;-0.428;2023-06-26T07:35:53;5.60;;;2.27;;
20743;SDS011;56303;52.160;-0.428;2023-06-26T07:38:20;5.53;;;2.07;;
20743;SDS011;56303;52.160;-0.428;2023-06-26T07:40:46;6.27;;;2.30;;
20743;SDS011;56303;52.160;-0.428;2023-06-26T07:43:13;4.30;;;1.90;;
20743;SDS011;56303;52.160;-0.428;2023-06-26T07:45:40;5.53;;;2.20;;
20743;SDS011;56303;52.160;-0.428;2023-06-26T07:48:07;5.70;;;2.60;;
20743;SDS011;56303;52.160;-0.428;2023-06-26T07:50:35;5.90;;;2.40;;
20743;SDS011;56303;52.160;-0.428;2023-06-26T07:53:03;4.07;;;1.90;;
20743;SDS011;56303;52.160;-0.428;2023-06-26T07:55:32;5.37;;;2.00;;
20743;SDS011;56303;52.160;-0.428;2023-06-26T07:57:59;4.33;;;2.50;;
20743;SDS011;56303;52.160;-0.428;2023-06-26T08:00:28;5.00;;;2.00;;
20743;SDS011;56303;52.160;-0.428;2023-06-26T08:02:55;4.77;;;2.23;;
20743;SDS011;56303;52.160;-0.428;2023-06-26T08:05:23;4.67;;;2.40;;
20743;SDS011;56303;52.160;-0.428;2023-06-26T08:07:51;4.33;;;1.97;;
20743;SDS011;56303;52.160;-0.428;2023-06-26T08:10:17;3.70;;;2.20;;
20743;SDS011;56303;52.160;-0.428;2023-06-26T08:12:44;5.03;;;2.10;;
20743;SDS011;56303;52.160;-0.428;2023-06-26T08:15:13;3.63;;;1.87;;
20743;SDS011;56303;52.160;-0.428;2023-06-26T08:17:40;4.43;;;2.10;;
20743;SDS011;56303;52.160;-0.428;2023-06-26T08:20:07;4.97;;;2.50;;
20743;SDS011;56303;52.160;-0.428;2023-06-26T08:22:34;5.87;;;2.60;;
20743;SDS011;56303;52.160;-0.428;2023-06-26T08:25:02;5.77;;;2.00;;
20743;SDS011;56303;52.160;-0.428;2023-06-26T08:27:30;4.53;;;2.20;;
20743;SDS011;56303;52.160;-0.428;2023-06-26T08:29:57;5.10;;;2.50;;
20743;SDS011;56303;52.160;-0.428;2023-06-26T08:32:24;6.23;;;2.87;;
20743;SDS011;56303;52.160;-0.428;2023-06-26T08:34:51;4.87;;;2.10;;
20743;SDS011;56303;52.160;-0.428;2023-06-26T08:37:18;4.93;;;2.63;;
20743;SDS011;56303;52.160;-0.428;2023-06-26T08:39:46;5.63;;;2.30;;
20743;SDS011;56303;52.160;-0.428;2023-06-26T08:42:13;4.37;;;2.00;;
20743;SDS011;56303;52.160;-0.428;2023-06-26T08:44:40;2.63;;;1.90;;
20743;SDS011;56303;52.160;-0.428;2023-06-26T08:47:22;7.50;;;2.20;;
20743;SDS011;56303;52.160;-0.428;2023-06-26T08:50:08;3.77;;;2.00;;
20743;SDS011;56303;52.160;-0.428;2023-06-26T08:55:41;3.60;;;1.80;;
20743;SDS011;56303;52.160;-0.428;2023-06-26T08:58:10;2.87;;;1.73;;
20743;SDS011;56303;52.160;-0.428;2023-06-26T09:00:38;6.03;;;1.90;;
20743;SDS011;56303;52.160;-0.428;2023-06-26T09:03:06;5.30;;;2.20;;
20743;SDS011;56303;52.160;-0.428;2023-06-26T09:05:34;7.57;;;2.20;;
20743;SDS011;56303;52.160;-0.428;2023-06-26T09:08:02;4.57;;;2.00;;
20743;SDS011;56303;52.160;-0.428;2023-06-26T09:10:29;4.30;;;2.10;;
20743;SDS011;56303;52.160;-0.428;2023-06-26T09:12:57;6.33;;;1.97;;
20743;SDS011;56303;52.160;-0.428;2023-06-26T09:15:24;2.67;;;1.50;;
20743;SDS011;56303;52.160;-0.428;2023-06-26T09:17:53;3.97;;;1.60;;
20743;SDS011;56303;52.160;-0.428;2023-06-26T09:20:24;6.70;;;1.73;;
20743;SDS011;56303;52.160;-0.428;2023-06-26T09:22:54;4.13;;;1.63;;
20743;SDS011;56303;52.160;-0.428;2023-06-26T09:25:22;2.03;;;1.53;;
20743;SDS011;56303;52.160;-0.428;2023-06-26T09:27:49;3.63;;;1.80;;
20743;SDS011;56303;52.160;-0.428;2023-06-26T09:30:16;2.40;;;1.30;;
20743;SDS011;56303;52.160;-0.428;2023-06-26T09:32:44;4.70;;;2.20;;
20743;SDS011;56303;52.160;-0.428;2023-06-26T09:35:12;4.80;;;1.70;;
20743;SDS011;56303;52.160;-0.428;2023-06-26T09:37:39;3.97;;;1.67;;
20743;SDS011;56303;52.160;-0.428;2023-06-26T09:40:06;5.00;;;2.00;;
20743;SDS011;56303;52.160;-0.428;2023-06-26T09:42:34;9.83;;;1.93;;
20743;SDS011;56303;52.160;-0.428;2023-06-26T09:45:01;6.33;;;2.03;;
20743;SDS011;56303;52.160;-0.428;2023-06-26T09:47:32;4.57;;;1.80;;
20743;SDS011;56303;52.160;-0.428;2023-06-26T09:50:03;3.53;;;1.70;;
20743;SDS011;56303;52.160;-0.428;2023-06-26T09:52:31;2.87;;;1.53;;
20743;SDS011;56303;52.160;-0.428;2023-06-26T09:55:08;5.87;;;2.13;;
20743;SDS011;56303;52.160;-0.428;2023-06-26T09:57:35;2.17;;;1.50;;
20743;SDS011;56303;52.160;-0.428;2023-06-26T10:00:02;2.73;;;1.50;;
20743;SDS011;56303;52.160;-0.428;2023-06-26T10:02:31;5.70;;;2.07;;
20743;SDS011;56303;52.160;-0.428;2023-06-26T10:04:58;5.33;;;1.77;;
20743;SDS011;56303;52.160;-0.428;2023-06-26T10:07:25;5.23;;;2.40;;
20743;SDS011;56303;52.160;-0.428;2023-06-26T10:09:52;4.07;;;1.97;;
20743;SDS011;56303;52.160;-0.428;2023-06-26T10:12:29;4.73;;;1.93;;
20743;SDS011;56303;52.160;-0.428;2023-06-26T10:14:57;5.47;;;2.00;;
20743;SDS011;56303;52.160;-0.428;2023-06-26T10:17:30;4.90;;;1.97;;
20743;SDS011;56303;52.160;-0.428;2023-06-26T10:20:01;6.17;;;1.90;;
20743;SDS011;56303;52.160;-0.428;2023-06-26T10:22:31;4.17;;;2.53;;
20743;SDS011;56303;52.160;-0.428;2023-06-26T10:25:03;3.33;;;1.70;;
20743;SDS011;56303;52.160;-0.428;2023-06-26T10:27:35;6.00;;;1.97;;
20743;SDS011;56303;52.160;-0.428;2023-06-26T10:30:06;3.70;;;1.83;;
20743;SDS011;56303;52.160;-0.428;2023-06-26T10:32:36;5.07;;;1.70;;
20743;SDS011;56303;52.160;-0.428;2023-06-26T10:35:05;4.33;;;1.60;;
20743;SDS011;56303;52.160;-0.428;2023-06-26T10:37:42;4.37;;;2.10;;
20743;SDS011;56303;52.160;-0.428;2023-06-26T10:40:10;5.50;;;1.80;;
20743;SDS011;56303;52.160;-0.428;2023-06-26T10:42:39;5.23;;;1.90;;
20743;SDS011;56303;52.160;-0.428;2023-06-26T10:45:16;2.37;;;1.80;;
20743;SDS011;56303;52.160;-0.428;2023-06-26T10:47:47;3.73;;;1.70;;
20743;SDS011;56303;52.160;-0.428;2023-06-26T10:50:28;3.47;;;1.70;;
20743;SDS011;56303;52.160;-0.428;2023-06-26T10:55:37;4.60;;;1.90;;
20743;SDS011;56303;52.160;-0.428;2023-06-26T11:03:39;4.43;;;1.43;;
20743;SDS011;56303;52.160;-0.428;2023-06-26T11:06:14;4.17;;;1.87;;
20743;SDS011;56303;52.160;-0.428;2023-06-26T11:08:53;4.07;;;1.70;;
20743;SDS011;56303;52.160;-0.428;2023-06-26T11:14:21;4.60;;;1.50;;
20743;SDS011;56303;52.160;-0.428;2023-06-26T11:16:49;2.60;;;1.47;;
20743;SDS011;56303;52.160;-0.428;2023-06-26T11:19:16;4.27;;;1.67;;
20743;SDS011;56303;52.160;-0.428;2023-06-26T11:21:44;3.47;;;1.50;;
20743;SDS011;56303;52.160;-0.428;2023-06-26T11:24:12;3.70;;;1.50;;
20743;SDS011;56303;52.160;-0.428;2023-06-26T11:26:40;3.77;;;1.50;;
20743;SDS011;56303;52.160;-0.428;2023-06-26T11:29:08;4.13;;;1.80;;
20743;SDS011;56303;52.160;-0.428;2023-06-26T11:31:37;5.87;;;2.03;;
20743;SDS011;56303;52.160;-0.428;2023-06-26T11:34:11;3.73;;;1.67;;
20743;SDS011;56303;52.160;-0.428;2023-06-26T11:36:39;4.07;;;1.50;;
20743;SDS011;56303;52.160;-0.428;2023-06-26T11:39:12;4.67;;;1.40;;
20743;SDS011;56303;52.160;-0.428;2023-06-26T11:41:40;4.10;;;1.73;;
20743;SDS011;56303;52.160;-0.428;2023-06-26T11:44:08;5.33;;;1.60;;
20743;SDS011;56303;52.160;-0.428;2023-06-26T11:46:40;2.97;;;1.50;;
20743;SDS011;56303;52.160;-0.428;2023-06-26T11:49:08;2.50;;;1.50;;
20743;SDS011;56303;52.160;-0.428;2023-06-26T11:51:35;2.70;;;1.57;;
20743;SDS011;56303;52.160;-0.428;2023-06-26T11:54:03;3.63;;;1.30;;
20743;SDS011;56303;52.160;-0.428;2023-06-26T11:56:30;3.30;;;1.50;;
20743;SDS011;56303;52.160;-0.428;2023-06-26T12:01:35;4.17;;;1.70;;
20743;SDS011;56303;52.160;-0.428;2023-06-26T12:04:04;3.40;;;1.40;;
20743;SDS011;56303;52.160;-0.428;2023-06-26T12:06:36;4.57;;;1.90;;
20743;SDS011;56303;52.160;-0.428;2023-06-26T12:09:07;3.23;;;1.30;;
20743;SDS011;56303;52.160;-0.428;2023-06-26T12:11:38;4.47;;;1.63;;
20743;SDS011;56303;52.160;-0.428;2023-06-26T12:14:06;2.83;;;1.33;;
20743;SDS011;56303;52.160;-0.428;2023-06-26T12:16:34;3.57;;;1.80;;
20743;SDS011;56303;52.160;-0.428;2023-06-26T12:19:02;4.07;;;1.50;;
20743;SDS011;56303;52.160;-0.428;2023-06-26T12:24:04;5.17;;;1.50;;
20743;SDS011;56303;52.160;-0.428;2023-06-26T12:26:32;3.20;;;1.50;;
20743;SDS011;56303;52.160;-0.428;2023-06-26T12:29:03;4.63;;;1.40;;
20743;SDS011;56303;52.160;-0.428;2023-06-26T12:31:31;3.27;;;1.27;;
20743;SDS011;56303;52.160;-0.428;2023-06-26T12:33:59;3.50;;;1.80;;
20743;SDS011;56303;52.160;-0.428;2023-06-26T12:36:26;4.40;;;1.57;;
20743;SDS011;56303;52.160;-0.428;2023-06-26T12:38:53;3.47;;;1.70;;
20743;SDS011;56303;52.160;-0.428;2023-06-26T12:41:23;3.57;;;1.40;;
20743;SDS011;56303;52.160;-0.428;2023-06-26T12:43:55;3.57;;;1.27;;
20743;SDS011;56303;52.160;-0.428;2023-06-26T12:46:33;3.63;;;2.17;;
20743;SDS011;56303;52.160;-0.428;2023-06-26T12:49:04;6.57;;;2.13;;
20743;SDS011;56303;52.160;-0.428;2023-06-26T12:51:47;6.20;;;1.57;;
20743;SDS011;56303;52.160;-0.428;2023-06-26T12:54:14;3.53;;;1.40;;
20743;SDS011;56303;52.160;-0.428;2023-06-26T12:56:41;5.50;;;1.93;;
20743;SDS011;56303;52.160;-0.428;2023-06-26T12:59:08;6.43;;;1.70;;
20743;SDS011;56303;52.160;-0.428;2023-06-26T13:01:35;3.17;;;1.50;;
20743;SDS011;56303;52.160;-0.428;2023-06-26T13:04:02;2.88;;;1.45;;
20743;SDS011;56303;52.160;-0.428;2023-06-26T13:06:30;3.08;;;1.65;;
20743;SDS011;56303;52.160;-0.428;2023-06-26T13:08:57;4.57;;;1.87;;
20743;SDS011;56303;52.160;-0.428;2023-06-26T13:11:24;4.97;;;1.80;;
20743;SDS011;56303;52.160;-0.428;2023-06-26T13:13:52;2.70;;;1.55;;
20743;SDS011;56303;52.160;-0.428;2023-06-26T13:16:36;5.53;;;1.38;;
20743;SDS011;56303;52.160;-0.428;2023-06-26T13:19:03;3.37;;;1.93;;
20743;SDS011;56303;52.160;-0.428;2023-06-26T13:21:30;3.03;;;1.80;;
20743;SDS011;56303;52.160;-0.428;2023-06-26T13:23:57;3.35;;;1.65;;
20743;SDS011;56303;52.160;-0.428;2023-06-26T13:26:25;3.88;;;1.63;;
20743;SDS011;56303;52.160;-0.428;2023-06-26T13:29:03;2.53;;;1.67;;
20743;SDS011;56303;52.160;-0.428;2023-06-26T13:31:31;3.03;;;1.40;;
20743;SDS011;56303;52.160;-0.428;2023-06-26T13:33:58;1.95;;;1.25;;
20743;SDS011;56303;52.160;-0.428;2023-06-26T13:36:26;4.47;;;1.85;;
20743;SDS011;56303;52.160;-0.428;2023-06-26T13:38:53;2.58;;;1.30;;
20743;SDS011;56303;52.160;-0.428;2023-06-26T13:41:23;2.70;;;1.40;;
20743;SDS011;56303;52.160;-0.428;2023-06-26T13:43:51;4.10;;;1.38;;
20743;SDS011;56303;52.160;-0.428;2023-06-26T13:46:20;2.05;;;1.30;;
20743;SDS011;56303;52.160;-0.428;2023-06-26T13:48:54;2.60;;;1.10;;
20743;SDS011;56303;52.160;-0.428;2023-06-26T13:51:20;3.70;;;1.40;;
20743;SDS011;56303;52.160;-0.428;2023-06-26T13:53:47;4.20;;;1.80;;
20743;SDS011;56303;52.160;-0.428;2023-06-26T13:56:14;2.78;;;1.60;;
20743;SDS011;56303;52.160;-0.428;2023-06-26T13:58:41;2.08;;;1.25;;
20743;SDS011;56303;52.160;-0.428;2023-06-26T14:01:08;3.58;;;1.73;;
20743;SDS011;56303;52.160;-0.428;2023-06-26T14:03:35;2.80;;;1.27;;
20743;SDS011;56303;52.160;-0.428;2023-06-26T14:06:02;3.37;;;1.70;;
20743;SDS011;56303;52.160;-0.428;2023-06-26T14:08:29;3.17;;;1.80;;
20743;SDS011;56303;52.160;-0.428;2023-06-26T14:10:56;4.57;;;2.17;;
20743;SDS011;56303;52.160;-0.428;2023-06-26T14:13:23;4.93;;;1.70;;
20743;SDS011;56303;52.160;-0.428;2023-06-26T14:15:50;3.67;;;1.90;;
20743;SDS011;56303;52.160;-0.428;2023-06-26T14:18:20;3.27;;;1.70;;
20743;SDS011;56303;52.160;-0.428;2023-06-26T14:20:50;4.78;;;1.50;;
20743;SDS011;56303;52.160;-0.428;2023-06-26T14:23:18;3.55;;;1.65;;
20743;SDS011;56303;52.160;-0.428;2023-06-26T14:25:45;3.60;;;1.52;;
20743;SDS011;56303;52.160;-0.428;2023-06-26T14:28:15;5.97;;;2.00;;
20743;SDS011;56303;52.160;-0.428;2023-06-26T14:30:42;4.15;;;1.77;;
20743;SDS011;56303;52.160;-0.428;2023-06-26T14:33:09;2.93;;;1.27;;
20743;SDS011;56303;52.160;-0.428;2023-06-26T14:35:36;3.73;;;1.53;;
20743;SDS011;56303;52.160;-0.428;2023-06-26T14:38:03;2.17;;;1.30;;
20743;SDS011;56303;52.160;-0.428;2023-06-26T14:40:30;3.67;;;1.77;;
20743;SDS011;56303;52.160;-0.428;2023-06-26T14:42:57;3.10;;;1.97;;
20743;SDS011;56303;52.160;-0.428;2023-06-26T14:45:25;5.90;;;1.65;;
20743;SDS011;56303;52.160;-0.428;2023-06-26T14:47:52;2.42;;;1.60;;
20743;SDS011;56303;52.160;-0.428;2023-06-26T14:50:19;4.22;;;1.67;;
20743;SDS011;56303;52.160;-0.428;2023-06-26T14:52:46;3.63;;;1.70;;
20743;SDS011;56303;52.160;-0.428;2023-06-26T14:55:13;3.58;;;1.50;;
20743;SDS011;56303;52.160;-0.428;2023-06-26T14:57:40;2.13;;;1.30;;
20743;SDS011;56303;52.160;-0.428;2023-06-26T15:00:07;3.92;;;1.73;;
20743;SDS011;56303;52.160;-0.428;2023-06-26T15:02:34;2.47;;;1.50;;
20743;SDS011;56303;52.160;-0.428;2023-06-26T15:05:01;3.92;;;1.83;;
20743;SDS011;56303;52.160;-0.428;2023-06-26T15:07:29;3.60;;;2.05;;